createdAt,value
2023-10-06T00:00:27.777Z,8.20
2023-10-06T00:02:54.927Z,8.10
2023-10-06T00:05:21.794Z,8.10
2023-10-06T00:07:49.468Z,8.00
2023-10-06T00:10:18.851Z,8.00
2023-10-06T00:12:49.872Z,8.00
2023-10-06T00:18:04.371Z,7.80
2023-10-06T00:20:40.640Z,7.80
2023-10-06T00:23:10.483Z,7.80
2023-10-06T00:25:37.749Z,7.80
2023-10-06T00:28:07.860Z,7.70
2023-10-06T00:30:35.368Z,7.80
2023-10-06T00:33:02.113Z,7.80
2023-10-06T00:35:32.208Z,7.80
2023-10-06T00:38:11.603Z,7.80
2023-10-06T00:40:40.271Z,7.80
2023-10-06T00:45:40.452Z,7.80
2023-10-06T00:48:15.872Z,7.80
2023-10-06T00:50:44.109Z,7.70
2023-10-06T00:53:14.693Z,7.80
2023-10-06T00:55:41.916Z,7.80
2023-10-06T00:58:11.856Z,7.70
2023-10-06T01:00:42.107Z,7.70
2023-10-06T01:03:15.606Z,7.70
2023-10-06T01:05:46.787Z,7.70
2023-10-06T01:08:14.160Z,7.60
2023-10-06T01:10:41.352Z,7.60
2023-10-06T01:13:15.326Z,7.60
2023-10-06T01:15:56.869Z,7.50
2023-10-06T01:18:28.387Z,7.50
2023-10-06T01:20:55.618Z,7.50
2023-10-06T01:23:28.859Z,7.50
2023-10-06T01:25:56.615Z,7.60
2023-10-06T01:28:24.760Z,7.60
2023-10-06T01:30:52.760Z,7.50
2023-10-06T01:33:19.521Z,7.40
2023-10-06T01:35:50.349Z,7.40
2023-10-06T01:38:37.747Z,7.50
2023-10-06T01:41:08.064Z,7.40
2023-10-06T01:43:34.898Z,7.50
2023-10-06T01:46:01.815Z,7.60
2023-10-06T01:48:32.167Z,7.60
2023-10-06T01:50:59.031Z,7.50
2023-10-06T01:53:26.519Z,7.40
2023-10-06T01:55:53.902Z,7.30
2023-10-06T01:58:21.630Z,7.20
2023-10-06T02:00:51.674Z,7.20
2023-10-06T02:03:19.237Z,7.20
2023-10-06T02:05:46.187Z,7.20
2023-10-06T02:08:22.734Z,7.20
2023-10-06T02:10:51.218Z,7.20
2023-10-06T02:13:24.273Z,7.20
2023-10-06T02:15:59.754Z,7.10
2023-10-06T02:18:37.014Z,7.00
2023-10-06T02:21:16.384Z,7.00
2023-10-06T02:23:44.926Z,6.90
2023-10-06T02:26:13.516Z,6.90
2023-10-06T02:28:44.354Z,6.90
2023-10-06T02:31:15.006Z,6.80
2023-10-06T02:33:42.707Z,6.80
2023-10-06T02:36:19.351Z,6.80
2023-10-06T02:38:50.058Z,6.80
2023-10-06T02:41:21.367Z,6.80
2023-10-06T02:43:53.332Z,6.70
2023-10-06T02:46:24.725Z,6.70
2023-10-06T02:48:51.801Z,6.70
2023-10-06T02:51:30.512Z,6.70
2023-10-06T02:54:14.549Z,6.70
2023-10-06T02:56:46.627Z,6.60
2023-10-06T02:59:22.990Z,6.60
2023-10-06T03:02:07.651Z,6.60
2023-10-06T03:04:37.682Z,6.50
2023-10-06T03:07:12.866Z,6.50
2023-10-06T03:09:44.383Z,6.50
2023-10-06T03:12:14.908Z,6.40
2023-10-06T03:14:41.883Z,6.50
2023-10-06T03:17:10.328Z,6.50
2023-10-06T03:19:41.926Z,6.50
2023-10-06T03:22:11.320Z,6.50
2023-10-06T03:24:54.367Z,6.50
2023-10-06T03:27:23.818Z,6.60
2023-10-06T03:29:57.004Z,6.60
2023-10-06T03:32:33.949Z,6.60
2023-10-06T03:35:12.737Z,6.50
2023-10-06T03:37:52.899Z,6.40
2023-10-06T03:40:43.742Z,6.40
2023-10-06T03:43:14.280Z,6.40
2023-10-06T03:45:43.593Z,6.40
2023-10-06T03:48:12.688Z,6.40
2023-10-06T03:50:43.529Z,6.40
2023-10-06T03:53:13.713Z,6.40
2023-10-06T03:55:41.151Z,6.40
2023-10-06T03:58:09.619Z,6.40
2023-10-06T04:00:39.893Z,6.40
2023-10-06T04:03:12.218Z,6.30
2023-10-06T04:05:38.919Z,6.30
2023-10-06T04:08:13.162Z,6.30
2023-10-06T04:10:42.101Z,6.30
2023-10-06T04:13:09.644Z,6.30
2023-10-06T04:15:39.942Z,6.30
2023-10-06T04:18:12.529Z,6.30
2023-10-06T04:20:42.490Z,6.30
2023-10-06T04:23:09.429Z,6.30
2023-10-06T04:25:39.517Z,6.30
2023-10-06T04:28:10.353Z,6.20
2023-10-06T04:30:38.260Z,6.30
2023-10-06T04:33:05.898Z,6.20
2023-10-06T04:35:33.842Z,6.20
2023-10-06T04:38:04.366Z,6.20
2023-10-06T04:40:31.065Z,6.20
2023-10-06T04:43:00.794Z,6.20
2023-10-06T04:45:28.582Z,6.20
2023-10-06T04:47:56.842Z,6.10
2023-10-06T04:50:23.747Z,6.20
2023-10-06T04:52:50.476Z,6.20
2023-10-06T04:55:18.448Z,6.10
2023-10-06T04:57:45.256Z,6.10
2023-10-06T05:00:19.456Z,6.10
2023-10-06T05:02:51.601Z,6.10
2023-10-06T05:05:20.642Z,6.20
2023-10-06T05:07:51.714Z,6.20
2023-10-06T05:10:26.407Z,6.10
2023-10-06T05:12:53.928Z,6.10
2023-10-06T05:15:31.235Z,6.20
2023-10-06T05:17:59.875Z,6.20
2023-10-06T05:20:31.367Z,6.30
2023-10-06T05:23:06.858Z,6.50
2023-10-06T05:25:34.483Z,6.40
2023-10-06T05:28:01.372Z,6.30
2023-10-06T05:30:28.553Z,6.20
2023-10-06T05:32:59.062Z,6.20
2023-10-06T05:35:31.152Z,6.30
2023-10-06T05:37:59.236Z,6.60
2023-10-06T05:40:30.656Z,6.80
2023-10-06T05:42:58.629Z,7.20
2023-10-06T05:45:25.524Z,7.20
2023-10-06T05:47:53.029Z,7.20
2023-10-06T05:50:28.470Z,7.20
2023-10-06T05:52:58.884Z,7.30
2023-10-06T05:55:36.389Z,7.40
2023-10-06T05:58:05.314Z,7.70
2023-10-06T06:00:32.600Z,7.90
2023-10-06T06:03:07.846Z,7.80
2023-10-06T06:05:36.578Z,7.60
2023-10-06T06:08:12.065Z,7.30
2023-10-06T06:10:39.661Z,7.60
2023-10-06T06:13:06.901Z,7.60
2023-10-06T06:15:34.587Z,7.50
2023-10-06T06:18:02.133Z,8.00
2023-10-06T06:20:30.272Z,8.30
2023-10-06T06:23:00.615Z,8.50
2023-10-06T06:25:27.612Z,8.60
2023-10-06T06:27:55.498Z,8.50
2023-10-06T06:30:25.704Z,8.80
2023-10-06T06:32:54.096Z,9.00
2023-10-06T06:35:25.012Z,9.10
2023-10-06T06:38:01.078Z,9.30
2023-10-06T06:40:29.904Z,9.20
2023-10-06T06:42:56.838Z,9.40
2023-10-06T08:07:45.356Z,9.60
2023-10-06T08:42:49.829Z,13.90
2023-10-06T08:45:22.986Z,14.00
2023-10-06T08:52:59.115Z,14.20
2023-10-06T08:55:28.984Z,14.40
2023-10-06T08:57:57.288Z,14.40
2023-10-06T09:00:33.706Z,14.40
2023-10-06T16:18:49.415Z,14.60
2023-10-06T18:07:40.259Z,18.40
2023-10-06T18:10:09.524Z,13.90
2023-10-06T18:12:37.856Z,13.70
2023-10-06T18:15:06.495Z,13.60
2023-10-06T18:20:00.439Z,13.40
2023-10-06T18:22:28.321Z,13.40
2023-10-06T18:24:55.166Z,13.50
2023-10-06T18:27:22.481Z,13.60
2023-10-06T18:29:49.891Z,13.50
2023-10-06T18:32:18.129Z,13.40
2023-10-06T18:34:45.070Z,13.40
2023-10-06T18:37:12.553Z,13.50
2023-10-06T18:39:40.015Z,13.40
2023-10-06T19:19:05.832Z,13.40
2023-10-06T19:21:32.647Z,12.60
2023-10-06T19:24:02.500Z,12.70
2023-10-06T19:41:19.355Z,12.60
2023-10-06T19:43:46.282Z,12.60
2023-10-06T19:46:15.039Z,12.50
2023-10-06T19:48:43.690Z,12.50
2023-10-06T19:51:11.485Z,12.50
